Terminal Aerodrome Forecast
Issued by NWS Paducah, KY

Home | Current Version | Previous Version | Text Only | Print | Product List | Glossary On
Versions: 1 2 3 4 5 6 7 8 9 10 11 12 13 14 15
000
FTUS43 KPAH 231940 AAA
TAFPAH
TAF AMD
KPAH 231940Z 2320/2418 14005KT P6SM SCT040 BKN070
      TEMPO 2320/2322 -SHRA BKN035
     FM240000 17005KT P6SM SCT050 BKN250 PROB30 2408/2414 -SHRA=

USA.gov is the U.S. government's official web portal to all federal, state and local government web resources and services.